Sao Pedro Do Mar — CUFR8 — position and weather

sailwx.info

Track history (hours):
 
Tides and Currents Weather Stations Pressure Air Temp Water Temp Dewpoint Dewpoint Depression Visibility Wind Speed Wind Dir Waves Ship Positions

Sao Pedro Do Mar

Last reported at 2018-Apr-25 05:47 UTC. Time now 2018-Apr-26 09:37 UTC.
Position N 36°49' W 008°28'.

Length 25 m.

MMSI: 263411770.

Date/timePositionNaut miles runAvg speedWind from/ knotsBaromVisibWave heightAir tempDewpointWater temp
2018-Apr-25 05:47N 36°49' W 008°28'11 3.3
2018-Apr-25 02:34N 36°48' W 008°41'0 2.6
2018-Apr-25 02:30N 36°48' W 008°41'1 2.7
2018-Apr-25 01:58N 36°49' W 008°43'2 0.7
2018-Apr-24 22:55N 36°49' W 008°46'1 2.7
2018-Apr-24 22:30N 36°49' W 008°44'1 2.8
2018-Apr-24 21:59N 36°49' W 008°43'1 2.8
2018-Apr-24 21:29N 36°48' W 008°41'11 4.1
2018-Apr-24 18:45N 36°49' W 008°27'2 2.1
2018-Apr-24 17:35N 36°48' W 008°24'0 2.7
2018-Apr-24 17:26N 36°48' W 008°23'2 2.8
2018-Apr-24 16:38N 36°48' W 008°21'2 2.9
2018-Apr-24 15:49N 36°48' W 008°18'2 2.7
2018-Apr-24 15:13N 36°48' W 008°16'1 4.1
2018-Apr-24 15:00N 36°48' W 008°14'2 3.6
2018-Apr-24 14:30N 36°48' W 008°12'1 1.6
2018-Apr-24 13:47N 36°48' W 008°14'1 2.6
2018-Apr-24 13:30N 36°47' W 008°15'5 2.6
2018-Apr-24 11:26N 36°47' W 008°21'7 1.3
2018-Apr-24 05:55N 36°48' W 008°12'2 3.8
2018-Apr-24 05:17N 36°48' W 008°10'0 0.4
2018-Apr-24 04:50N 36°48' W 008°09'1 2.9
2018-Apr-24 04:30N 36°48' W 008°08'3 3.0
2018-Apr-24 03:33N 36°48' W 008°05'0 2.6
2018-Apr-24 03:29N 36°48' W 008°04'22 0.7
2018-Apr-22 20:33N 36°50' W 008°32'1 7.5
2018-Apr-22 20:25N 36°51' W 008°32'1 2.1
2018-Apr-22 20:00N 36°51' W 008°33'1 1.4
2018-Apr-22 19:30N 36°51' W 008°34'4 2.3
2018-Apr-22 17:38N 36°50' W 008°39'0 3.1
2018-Apr-22 17:28N 36°50' W 008°39'3 3.0
2018-Apr-22 16:22N 36°50' W 008°43'43 1.7
2018-Apr-21 15:09N 37°28' W 009°08'1 1.8
2018-Apr-21 14:50N 37°29' W 009°08'0 0.8
2018-Apr-21 14:29N 37°29' W 009°08'15 1.2
2018-Apr-21 01:15N 37°42' W 009°19'1 2.7
2018-Apr-21 00:57N 37°42' W 009°19'2 2.9
2018-Apr-21 00:19N 37°44' W 009°17'1 2.8
2018-Apr-21 00:00N 37°43' W 009°18'5 2.8
2018-Apr-20 22:09N 37°38' W 009°16'12 1.5
2018-Apr-20 13:58N 37°27' W 009°09'30 2.5
2018-Apr-20 01:58N 37°55' W 008°53'2 4.8
2018-Apr-20 01:30N 37°57' W 008°52'0 0.0
2018-Apr-20 01:00N 37°57' W 008°52'0 0.0
2018-Apr-20 00:29N 37°57' W 008°52'0 0.0
2018-Apr-19 23:59N 37°57' W 008°52'0 0.0
2018-Apr-19 23:30N 37°57' W 008°52'0 0.0
2018-Apr-19 23:00N 37°57' W 008°52'0 0.0
2018-Apr-19 22:30N 37°57' W 008°52'0 0.0
2018-Apr-19 22:00N 37°57' W 008°52'0 0.0
2018-Apr-19 21:30N 37°57' W 008°52'0 0.0
2018-Apr-19 21:00N 37°57' W 008°52'0 0.0
2018-Apr-19 20:30N 37°57' W 008°52'0 0.0
2018-Apr-19 20:00N 37°57' W 008°52'0 0.0
2018-Apr-19 19:30N 37°57' W 008°52'0 0.0
2018-Apr-19 19:00N 37°57' W 008°52'0 0.2
2018-Apr-19 18:30N 37°57' W 008°52'0 0.0
2018-Apr-19 18:00N 37°57' W 008°52'2 5.0
2018-Apr-19 17:30N 37°55' W 008°54'4 8.7
2018-Apr-19 17:00N 37°52' W 008°57'4 8.7
2018-Apr-19 16:30N 37°48' W 009°00'4 8.7
2018-Apr-19 16:00N 37°44' W 009°04'3 5.3
2018-Apr-19 15:30N 37°43' W 009°06'0 0.8
2018-Apr-19 15:00N 37°43' W 009°06'1 2.7
2018-Apr-19 14:30N 37°41' W 009°07'1 2.8
2018-Apr-19 14:00N 37°40' W 009°07'1 2.7
2018-Apr-19 13:30N 37°39' W 009°07'1 2.7
2018-Apr-19 13:00N 37°37' W 009°07'1 2.8
2018-Apr-19 12:30N 37°36' W 009°07'1 2.8
2018-Apr-19 12:00N 37°34' W 009°07'1 2.7
2018-Apr-19 11:29N 37°33' W 009°07'4 0.2
2018-Apr-18 14:40N 37°29' W 009°08'1 4.7
2018-Apr-18 14:31N 37°29' W 009°08'0 0.3
2018-Apr-18 13:58N 37°28' W 009°08'1 0.3
2018-Apr-18 10:31N 37°28' W 009°07'0 2.5
2018-Apr-18 10:30N 37°28' W 009°07'1 1.7
2018-Apr-18 10:01N 37°28' W 009°08'0 0.4
2018-Apr-18 09:30N 37°28' W 009°08'1 2.4
2018-Apr-18 09:00N 37°27' W 009°08'1 0.2
2018-Apr-18 06:03N 37°28' W 009°08'0 2.4
2018-Apr-18 06:00N 37°28' W 009°08'1 2.4
2018-Apr-18 05:30N 37°29' W 009°08'3 5.3
2018-Apr-18 04:59N 37°26' W 009°07'4 7.9
2018-Apr-18 04:30N 37°23' W 009°06'5 8.7
2018-Apr-18 03:59N 37°18' W 009°05'4 8.6
2018-Apr-18 03:31N 37°14' W 009°04'4 8.4
2018-Apr-18 03:00N 37°10' W 009°03'4 8.3
2018-Apr-18 02:31N 37°06' W 009°02'4 8.0
2018-Apr-18 02:00N 37°02' W 009°01'13 7.4
2018-Apr-18 00:17N 37°01' W 008°45'3 8.5
2018-Apr-17 23:58N 37°02' W 008°42'4 8.4
2018-Apr-17 23:30N 37°04' W 008°37'4 8.7
2018-Apr-17 23:00N 37°06' W 008°32'2 4.5
2018-Apr-17 22:29N 37°08' W 008°32'0 0.0
2018-Apr-17 22:00N 37°08' W 008°32'0 0.0
2018-Apr-17 21:30N 37°08' W 008°32'0 0.0
2018-Apr-17 20:58N 37°08' W 008°32'0 0.0
2018-Apr-17 20:30N 37°08' W 008°32'0 0.0
2018-Apr-17 20:01N 37°08' W 008°32'0 0.0
2018-Apr-17 19:07N 37°08' W 008°32'0 0.0
2018-Apr-17 18:59N 37°08' W 008°32'0 0.0
2018-Apr-17 18:27N 37°08' W 008°32'0 0.0
2018-Apr-17 18:00N 37°08' W 008°32'0 0.0
2018-Apr-17 17:29N 37°08' W 008°32'2 4.1
2018-Apr-17 17:00N 37°06' W 008°32'4 9.0
2018-Apr-17 16:30N 37°02' W 008°28'5 9.1
2018-Apr-17 16:01N 36°58' W 008°26'5 9.2
2018-Apr-17 15:30N 36°54' W 008°24'5 9.2
2018-Apr-17 14:59N 36°49' W 008°22'1 1.4
2018-Apr-17 14:23N 36°49' W 008°21'6 2.6
2018-Apr-17 12:00N 36°48' W 008°13'3 2.7
2018-Apr-17 10:43N 36°49' W 008°09'1 2.7
2018-Apr-17 10:11N 36°49' W 008°07'6 0.2
2018-Apr-16 08:20N 36°48' W 008°14'0 0.7
2018-Apr-16 07:55N 36°48' W 008°15'1 1.1
2018-Apr-16 07:26N 36°48' W 008°14'3 2.1
2018-Apr-16 06:05N 36°48' W 008°10'  
Track history (hours):
 
Tides and Currents Weather Stations Pressure Air Temp Water Temp Dewpoint Dewpoint Depression Visibility Wind Speed Wind Dir Waves Ship Positions

Sao Pedro Do Mar

Last reported at 2018-Apr-25 05:47 UTC. Time now 2018-Apr-26 09:37 UTC.
Position N 36°49' W 008°28'.

Length 25 m.

MMSI: 263411770.

Date/timePositionNaut miles runAvg speedWind from/ knotsBaromVisibWave heightAir tempDewpointWater temp
2018-Apr-25 05:47N 36°49' W 008°28'11 3.3
2018-Apr-25 02:34N 36°48' W 008°41'0 2.6
2018-Apr-25 02:30N 36°48' W 008°41'1 2.7
2018-Apr-25 01:58N 36°49' W 008°43'2 0.7
2018-Apr-24 22:55N 36°49' W 008°46'1 2.7
2018-Apr-24 22:30N 36°49' W 008°44'1 2.8
2018-Apr-24 21:59N 36°49' W 008°43'1 2.8
2018-Apr-24 21:29N 36°48' W 008°41'11 4.1
2018-Apr-24 18:45N 36°49' W 008°27'2 2.1
2018-Apr-24 17:35N 36°48' W 008°24'0 2.7
2018-Apr-24 17:26N 36°48' W 008°23'2 2.8
2018-Apr-24 16:38N 36°48' W 008°21'2 2.9
2018-Apr-24 15:49N 36°48' W 008°18'2 2.7
2018-Apr-24 15:13N 36°48' W 008°16'1 4.1
2018-Apr-24 15:00N 36°48' W 008°14'2 3.6
2018-Apr-24 14:30N 36°48' W 008°12'1 1.6
2018-Apr-24 13:47N 36°48' W 008°14'1 2.6
2018-Apr-24 13:30N 36°47' W 008°15'5 2.6
2018-Apr-24 11:26N 36°47' W 008°21'7 1.3
2018-Apr-24 05:55N 36°48' W 008°12'2 3.8
2018-Apr-24 05:17N 36°48' W 008°10'0 0.4
2018-Apr-24 04:50N 36°48' W 008°09'1 2.9
2018-Apr-24 04:30N 36°48' W 008°08'3 3.0
2018-Apr-24 03:33N 36°48' W 008°05'0 2.6
2018-Apr-24 03:29N 36°48' W 008°04'22 0.7
2018-Apr-22 20:33N 36°50' W 008°32'1 7.5
2018-Apr-22 20:25N 36°51' W 008°32'1 2.1
2018-Apr-22 20:00N 36°51' W 008°33'1 1.4
2018-Apr-22 19:30N 36°51' W 008°34'4 2.3
2018-Apr-22 17:38N 36°50' W 008°39'0 3.1
2018-Apr-22 17:28N 36°50' W 008°39'3 3.0
2018-Apr-22 16:22N 36°50' W 008°43'43 1.7
2018-Apr-21 15:09N 37°28' W 009°08'1 1.8
2018-Apr-21 14:50N 37°29' W 009°08'0 0.8
2018-Apr-21 14:29N 37°29' W 009°08'15 1.2
2018-Apr-21 01:15N 37°42' W 009°19'1 2.7
2018-Apr-21 00:57N 37°42' W 009°19'2 2.9
2018-Apr-21 00:19N 37°44' W 009°17'1 2.8
2018-Apr-21 00:00N 37°43' W 009°18'5 2.8
2018-Apr-20 22:09N 37°38' W 009°16'12 1.5
2018-Apr-20 13:58N 37°27' W 009°09'30 2.5
2018-Apr-20 01:58N 37°55' W 008°53'2 4.8
2018-Apr-20 01:30N 37°57' W 008°52'0 0.0
2018-Apr-20 01:00N 37°57' W 008°52'0 0.0
2018-Apr-20 00:29N 37°57' W 008°52'0 0.0
2018-Apr-19 23:59N 37°57' W 008°52'0 0.0
2018-Apr-19 23:30N 37°57' W 008°52'0 0.0
2018-Apr-19 23:00N 37°57' W 008°52'0 0.0
2018-Apr-19 22:30N 37°57' W 008°52'0 0.0
2018-Apr-19 22:00N 37°57' W 008°52'0 0.0
2018-Apr-19 21:30N 37°57' W 008°52'0 0.0
2018-Apr-19 21:00N 37°57' W 008°52'0 0.0
2018-Apr-19 20:30N 37°57' W 008°52'0 0.0
2018-Apr-19 20:00N 37°57' W 008°52'0 0.0
2018-Apr-19 19:30N 37°57' W 008°52'0 0.0
2018-Apr-19 19:00N 37°57' W 008°52'0 0.2
2018-Apr-19 18:30N 37°57' W 008°52'0 0.0
2018-Apr-19 18:00N 37°57' W 008°52'2 5.0
2018-Apr-19 17:30N 37°55' W 008°54'4 8.7
2018-Apr-19 17:00N 37°52' W 008°57'4 8.7
2018-Apr-19 16:30N 37°48' W 009°00'4 8.7
2018-Apr-19 16:00N 37°44' W 009°04'3 5.3
2018-Apr-19 15:30N 37°43' W 009°06'0 0.8
2018-Apr-19 15:00N 37°43' W 009°06'1 2.7
2018-Apr-19 14:30N 37°41' W 009°07'1 2.8
2018-Apr-19 14:00N 37°40' W 009°07'1 2.7
2018-Apr-19 13:30N 37°39' W 009°07'1 2.7
2018-Apr-19 13:00N 37°37' W 009°07'1 2.8
2018-Apr-19 12:30N 37°36' W 009°07'1 2.8
2018-Apr-19 12:00N 37°34' W 009°07'1 2.7
2018-Apr-19 11:29N 37°33' W 009°07'4 0.2
2018-Apr-18 14:40N 37°29' W 009°08'1 4.7
2018-Apr-18 14:31N 37°29' W 009°08'0 0.3
2018-Apr-18 13:58N 37°28' W 009°08'1 0.3
2018-Apr-18 10:31N 37°28' W 009°07'0 2.5
2018-Apr-18 10:30N 37°28' W 009°07'1 1.7
2018-Apr-18 10:01N 37°28' W 009°08'0 0.4
2018-Apr-18 09:30N 37°28' W 009°08'1 2.4
2018-Apr-18 09:00N 37°27' W 009°08'1 0.2
2018-Apr-18 06:03N 37°28' W 009°08'0 2.4
2018-Apr-18 06:00N 37°28' W 009°08'1 2.4
2018-Apr-18 05:30N 37°29' W 009°08'3 5.3
2018-Apr-18 04:59N 37°26' W 009°07'4 7.9
2018-Apr-18 04:30N 37°23' W 009°06'5 8.7
2018-Apr-18 03:59N 37°18' W 009°05'4 8.6
2018-Apr-18 03:31N 37°14' W 009°04'4 8.4
2018-Apr-18 03:00N 37°10' W 009°03'4 8.3
2018-Apr-18 02:31N 37°06' W 009°02'4 8.0
2018-Apr-18 02:00N 37°02' W 009°01'13 7.4
2018-Apr-18 00:17N 37°01' W 008°45'3 8.5
2018-Apr-17 23:58N 37°02' W 008°42'4 8.4
2018-Apr-17 23:30N 37°04' W 008°37'4 8.7
2018-Apr-17 23:00N 37°06' W 008°32'2 4.5
2018-Apr-17 22:29N 37°08' W 008°32'0 0.0
2018-Apr-17 22:00N 37°08' W 008°32'0 0.0
2018-Apr-17 21:30N 37°08' W 008°32'0 0.0
2018-Apr-17 20:58N 37°08' W 008°32'0 0.0
2018-Apr-17 20:30N 37°08' W 008°32'0 0.0
2018-Apr-17 20:01N 37°08' W 008°32'0 0.0
2018-Apr-17 19:07N 37°08' W 008°32'0 0.0
2018-Apr-17 18:59N 37°08' W 008°32'0 0.0
2018-Apr-17 18:27N 37°08' W 008°32'0 0.0
2018-Apr-17 18:00N 37°08' W 008°32'0 0.0
2018-Apr-17 17:29N 37°08' W 008°32'2 4.1
2018-Apr-17 17:00N 37°06' W 008°32'4 9.0
2018-Apr-17 16:30N 37°02' W 008°28'5 9.1
2018-Apr-17 16:01N 36°58' W 008°26'5 9.2
2018-Apr-17 15:30N 36°54' W 008°24'5 9.2
2018-Apr-17 14:59N 36°49' W 008°22'1 1.4
2018-Apr-17 14:23N 36°49' W 008°21'6 2.6
2018-Apr-17 12:00N 36°48' W 008°13'3 2.7
2018-Apr-17 10:43N 36°49' W 008°09'1 2.7
2018-Apr-17 10:11N 36°49' W 008°07'6 0.2
2018-Apr-16 08:20N 36°48' W 008°14'0 0.7
2018-Apr-16 07:55N 36°48' W 008°15'1 1.1
2018-Apr-16 07:26N 36°48' W 008°14'3 2.1
2018-Apr-16 06:05N 36°48' W 008°10'  

Dump ship's entire track history